createdAt,value
2022-11-14T00:02:26.601Z,88.35
2022-11-14T00:05:13.136Z,88.65
2022-11-14T00:08:01.527Z,88.39
2022-11-14T00:10:49.231Z,88.47
2022-11-14T00:13:36.697Z,89.38
2022-11-14T00:16:23.201Z,88.78
2022-11-14T00:19:09.816Z,88.26
2022-11-14T00:21:56.345Z,88.67
2022-11-14T00:24:44.033Z,88.40
2022-11-14T00:27:30.496Z,89.40
2022-11-14T00:30:17.446Z,89.50
2022-11-14T00:33:03.851Z,88.68
2022-11-14T00:35:54.251Z,89.13
2022-11-14T00:38:41.019Z,88.55
2022-11-14T00:41:29.160Z,89.17
2022-11-14T00:44:15.665Z,88.55
2022-11-14T00:47:02.375Z,89.95
2022-11-14T00:49:49.211Z,88.86
2022-11-14T00:52:35.662Z,90.10
2022-11-14T00:55:22.104Z,90.52
2022-11-14T00:58:10.374Z,89.27
2022-11-14T01:00:57.156Z,90.13
2022-11-14T01:03:43.570Z,89.14
2022-11-14T01:06:30.131Z,88.45
2022-11-14T01:09:16.542Z,88.91
2022-11-14T01:12:03.277Z,89.30
2022-11-14T01:14:51.241Z,89.59
2022-11-14T01:17:38.146Z,90.37
2022-11-14T01:20:24.618Z,89.41
2022-11-14T01:23:12.657Z,89.59
2022-11-14T01:26:02.949Z,89.70
2022-11-14T01:28:49.727Z,90.16
2022-11-14T01:31:37.712Z,91.01
2022-11-14T01:34:24.761Z,91.56
2022-11-14T01:37:11.298Z,91.82
2022-11-14T01:39:57.615Z,91.75
2022-11-14T01:42:44.396Z,92.29
2022-11-14T01:45:53.415Z,91.64
2022-11-14T01:48:44.005Z,91.42
2022-11-14T01:51:32.952Z,92.21
2022-11-14T01:54:23.320Z,91.01
2022-11-14T01:57:10.862Z,91.45
2022-11-14T02:00:00.936Z,92.75
2022-11-14T02:02:47.729Z,92.28
2022-11-14T02:05:36.191Z,91.85
2022-11-14T02:08:23.210Z,92.32
2022-11-14T02:11:11.638Z,91.79
2022-11-14T02:13:59.150Z,91.63
2022-11-14T02:17:01.030Z,91.81
2022-11-14T02:19:54.624Z,90.93
2022-11-14T02:22:43.240Z,89.80
2022-11-14T02:25:30.148Z,90.55
2022-11-14T02:28:16.903Z,90.61
2022-11-14T02:31:03.315Z,90.85
2022-11-14T02:33:49.726Z,90.46
2022-11-14T02:36:36.449Z,90.50
2022-11-14T02:39:24.671Z,90.56
2022-11-14T02:42:11.171Z,90.74
2022-11-14T02:44:57.640Z,92.16
2022-11-14T02:47:44.065Z,91.78
2022-11-14T02:50:30.813Z,92.42
2022-11-14T02:53:17.467Z,91.19
2022-11-14T02:56:05.809Z,91.96
2022-11-14T02:58:52.541Z,92.14
2022-11-14T03:01:38.909Z,91.62
2022-11-14T03:04:25.389Z,91.10
2022-11-14T03:07:12.618Z,91.26
2022-11-14T03:09:59.166Z,91.73
2022-11-14T03:12:47.251Z,91.58
2022-11-14T03:15:34.079Z,90.80
2022-11-14T03:18:20.753Z,90.78
2022-11-14T03:21:07.711Z,91.59
2022-11-14T03:23:54.016Z,92.34
2022-11-14T03:26:40.713Z,91.33
2022-11-14T03:29:29.030Z,92.62
2022-11-14T03:32:15.452Z,91.84
2022-11-14T03:35:02.051Z,93.01
2022-11-14T03:37:50.897Z,93.19
2022-11-14T03:40:40.779Z,92.58
2022-11-14T03:43:28.078Z,92.50
2022-11-14T03:46:16.003Z,91.83
2022-11-14T03:49:03.194Z,92.21
2022-11-14T03:51:50.712Z,91.53
2022-11-14T03:54:37.037Z,91.79
2022-11-14T03:57:23.337Z,91.35
2022-11-14T04:00:11.264Z,90.60
2022-11-14T04:02:59.034Z,91.58
2022-11-14T04:05:46.108Z,91.46
2022-11-14T04:08:33.554Z,91.57
2022-11-14T04:11:21.007Z,91.00
2022-11-14T04:14:07.368Z,90.96
2022-11-14T04:16:54.078Z,92.12
2022-11-14T04:19:42.191Z,91.50
2022-11-14T04:22:28.544Z,92.46
2022-11-14T04:25:15.245Z,92.49
2022-11-14T04:28:01.616Z,92.41
2022-11-14T04:30:47.926Z,92.22
2022-11-14T04:33:34.397Z,92.40
2022-11-14T04:36:22.487Z,92.19
2022-11-14T04:39:12.536Z,91.67
2022-11-14T04:41:58.853Z,92.59
2022-11-14T04:44:45.664Z,91.73
2022-11-14T04:47:32.313Z,92.16
2022-11-14T04:50:18.956Z,91.58
2022-11-14T04:53:06.885Z,91.98
2022-11-14T04:55:57.014Z,91.13
2022-11-14T04:58:43.553Z,91.85
2022-11-14T05:01:30.248Z,91.98
2022-11-14T05:04:17.210Z,91.98
2022-11-14T05:07:04.303Z,91.47
2022-11-14T05:09:52.318Z,91.38
2022-11-14T05:12:38.826Z,90.96
2022-11-14T05:15:25.536Z,90.85
2022-11-14T05:18:12.313Z,92.16
2022-11-14T05:21:00.056Z,91.90
2022-11-14T05:23:46.563Z,91.60
2022-11-14T05:26:34.358Z,92.07
2022-11-14T05:29:21.091Z,91.32
2022-11-14T05:32:09.302Z,90.61
2022-11-14T05:34:58.981Z,91.80
2022-11-14T05:37:45.645Z,91.30
2022-11-14T05:40:32.405Z,90.77
2022-11-14T05:43:20.631Z,90.43
2022-11-14T05:46:10.380Z,91.09
2022-11-14T05:48:56.861Z,91.68
2022-11-14T05:51:43.582Z,91.86
2022-11-14T05:54:30.251Z,91.63
2022-11-14T05:57:16.984Z,92.12
2022-11-14T06:00:05.233Z,91.90
2022-11-14T06:02:53.712Z,92.15
2022-11-14T06:05:40.574Z,91.12
2022-11-14T06:08:29.170Z,91.61
2022-11-14T06:11:17.543Z,91.00
2022-11-14T06:14:08.397Z,91.82
2022-11-14T06:16:58.887Z,92.19
2022-11-14T06:19:46.155Z,92.96
2022-11-14T06:22:33.368Z,91.85
2022-11-14T06:25:20.223Z,91.78
2022-11-14T06:28:06.924Z,93.24
2022-11-14T06:30:58.175Z,92.75
2022-11-14T06:33:46.676Z,93.35
2022-11-14T06:36:33.364Z,92.44
2022-11-14T06:39:20.170Z,92.14
2022-11-14T06:42:07.112Z,91.29
2022-11-14T06:44:53.644Z,91.35
2022-11-14T06:47:40.167Z,91.46
2022-11-14T06:50:28.496Z,91.94
2022-11-14T06:53:15.176Z,91.02
2022-11-14T06:56:03.566Z,91.44
2022-11-14T06:58:51.222Z,91.23
2022-11-14T07:01:37.865Z,91.65
2022-11-14T07:04:24.507Z,91.44
2022-11-14T07:07:12.523Z,91.30
2022-11-14T07:09:59.531Z,90.29
2022-11-14T07:12:46.034Z,89.94
2022-11-14T07:15:32.929Z,91.13
2022-11-14T07:18:20.009Z,90.94
2022-11-14T07:21:07.383Z,90.23
2022-11-14T07:23:55.519Z,90.96
2022-11-14T07:26:42.318Z,91.36
2022-11-14T07:29:28.740Z,91.65
2022-11-14T07:32:15.272Z,91.55
2022-11-14T07:35:02.597Z,90.40
2022-11-14T07:37:49.895Z,90.63
2022-11-14T07:40:38.271Z,91.46
2022-11-14T07:43:25.239Z,90.97
2022-11-14T07:46:14.006Z,90.14
2022-11-14T07:49:00.475Z,90.69
2022-11-14T07:51:47.355Z,90.58
2022-11-14T07:54:34.155Z,91.48
2022-11-14T07:57:22.275Z,90.17
2022-11-14T08:00:10.794Z,91.15
2022-11-14T08:02:57.118Z,90.73
2022-11-14T08:05:43.970Z,90.50
2022-11-14T08:08:31.062Z,90.84
2022-11-14T08:11:37.884Z,90.89
2022-11-14T08:14:25.796Z,91.44
2022-11-14T08:17:12.495Z,91.08
2022-11-14T08:19:59.205Z,90.90
2022-11-14T08:22:45.774Z,90.94
2022-11-14T08:25:32.256Z,90.76
2022-11-14T08:28:18.887Z,91.36
2022-11-14T08:31:07.044Z,90.84
2022-11-14T08:33:54.020Z,90.96
2022-11-14T08:36:40.449Z,90.62
2022-11-14T08:39:27.197Z,90.99
2022-11-14T08:42:13.789Z,91.25
2022-11-14T08:45:00.602Z,90.93
2022-11-14T08:47:53.542Z,90.87
2022-11-14T08:50:40.234Z,90.96
2022-11-14T08:53:26.903Z,90.96
2022-11-14T08:56:13.997Z,90.88
2022-11-14T08:59:00.825Z,90.22
2022-11-14T09:01:47.491Z,91.01
2022-11-14T09:04:35.790Z,91.19
2022-11-14T09:07:22.767Z,91.38
2022-11-14T09:10:10.355Z,91.56
2022-11-14T09:12:57.679Z,92.05
2022-11-14T09:15:44.616Z,91.11
2022-11-14T09:18:31.780Z,91.08
2022-11-14T09:21:20.445Z,91.78
2022-11-14T09:24:07.720Z,91.80
2022-11-14T09:26:56.988Z,91.22
2022-11-14T09:29:43.731Z,92.13
2022-11-14T09:32:30.634Z,91.73
2022-11-14T09:35:18.075Z,92.22
2022-11-14T09:38:07.775Z,92.21
2022-11-14T09:41:05.006Z,91.75
2022-11-14T09:44:20.564Z,91.16
2022-11-14T09:47:10.944Z,90.84
2022-11-14T09:50:03.857Z,90.34
2022-11-14T09:52:53.740Z,90.81
2022-11-14T09:55:41.902Z,91.10
2022-11-14T09:58:29.204Z,91.31
2022-11-14T10:01:20.753Z,90.65
2022-11-14T10:04:15.517Z,90.84
2022-11-14T10:07:10.167Z,90.94
2022-11-14T10:10:05.247Z,91.02
2022-11-14T10:13:00.371Z,91.39
2022-11-14T10:15:51.338Z,91.52
2022-11-14T10:19:00.162Z,91.71
2022-11-14T10:22:07.934Z,91.39
2022-11-14T10:25:04.998Z,91.40
2022-11-14T10:28:05.501Z,90.96
2022-11-14T10:31:00.229Z,91.58
2022-11-14T10:33:52.828Z,91.64
2022-11-14T10:36:54.442Z,91.57
2022-11-14T10:39:47.385Z,91.83
2022-11-14T10:42:37.666Z,91.16
2022-11-14T10:45:29.251Z,90.78
2022-11-14T10:48:18.549Z,90.65
2022-11-14T10:51:09.113Z,90.52
2022-11-14T10:53:57.465Z,90.09
2022-11-14T10:56:47.599Z,90.37
2022-11-14T10:59:34.329Z,90.73
2022-11-14T11:02:22.372Z,90.34
2022-11-14T11:05:16.419Z,90.21
2022-11-14T11:08:42.012Z,89.13
2022-11-14T11:11:33.664Z,89.73
2022-11-14T11:14:20.840Z,89.81
2022-11-14T11:17:22.687Z,89.60
2022-11-14T11:20:31.660Z,89.28
2022-11-14T11:23:20.121Z,89.01
2022-11-14T11:26:09.518Z,88.65
2022-11-14T11:29:05.388Z,88.35
2022-11-14T11:31:53.943Z,88.35
2022-11-14T11:34:41.766Z,87.90
2022-11-14T11:37:30.573Z,88.50
2022-11-14T11:40:20.843Z,88.24
2022-11-14T11:46:24.034Z,87.54
2022-11-14T11:49:15.194Z,88.24
2022-11-14T11:52:06.124Z,87.72
2022-11-14T11:54:59.513Z,87.72
2022-11-14T11:57:49.324Z,87.48
2022-11-14T12:00:36.244Z,87.85
2022-11-14T12:03:24.256Z,87.73
2022-11-14T12:06:16.220Z,87.94
2022-11-14T12:09:14.999Z,87.62
2022-11-14T12:12:04.450Z,86.68
2022-11-14T12:15:02.069Z,86.42
2022-11-14T12:18:11.855Z,85.49
2022-11-14T12:21:12.523Z,84.45
2022-11-14T12:24:19.144Z,84.20
2022-11-14T12:27:16.598Z,85.40
2022-11-14T12:30:10.473Z,85.33
2022-11-14T12:33:01.072Z,84.62
2022-11-14T12:35:51.257Z,84.74
2022-11-14T12:38:43.331Z,84.81
2022-11-14T12:41:32.616Z,84.07
2022-11-14T12:44:24.105Z,84.76
2022-11-14T12:47:16.784Z,84.80
2022-11-14T12:50:24.700Z,84.67
2022-11-14T12:53:38.691Z,83.17
2022-11-14T12:56:55.203Z,82.00
2022-11-14T12:59:51.338Z,82.47
2022-11-14T13:02:53.159Z,82.91
2022-11-14T13:06:01.025Z,83.63
2022-11-14T13:09:07.190Z,83.19
2022-11-14T13:12:12.626Z,83.73
2022-11-14T13:15:17.472Z,83.40
2022-11-14T13:18:27.110Z,83.13
2022-11-14T13:21:45.608Z,82.66
2022-11-14T13:25:06.111Z,82.16
2022-11-14T13:28:18.877Z,82.04
2022-11-14T13:31:08.954Z,81.20
2022-11-14T13:33:59.127Z,81.17
2022-11-14T13:36:48.737Z,80.62
2022-11-14T13:39:41.805Z,80.62
2022-11-14T13:42:42.257Z,79.60
2022-11-14T13:45:43.882Z,78.86
2022-11-14T13:48:56.942Z,79.23
2022-11-14T13:51:44.611Z,79.44
2022-11-14T13:54:31.152Z,78.43
2022-11-14T13:57:28.789Z,79.34
2022-11-14T14:00:20.375Z,78.61
2022-11-14T14:03:23.005Z,78.73
2022-11-14T14:06:20.968Z,78.94
2022-11-14T14:09:14.451Z,78.40
2022-11-14T14:12:12.726Z,78.19
2022-11-14T14:15:09.195Z,78.33
2022-11-14T14:18:02.652Z,78.95
2022-11-14T14:20:56.894Z,79.74
2022-11-14T14:23:49.090Z,80.19
2022-11-14T14:26:42.398Z,79.30
2022-11-14T14:29:37.260Z,78.33
2022-11-14T14:32:25.474Z,77.83
2022-11-14T14:35:26.091Z,77.24
2022-11-14T14:38:15.276Z,77.15
2022-11-14T14:41:01.985Z,75.25
2022-11-14T14:43:53.639Z,73.21
2022-11-14T14:46:40.395Z,69.83
2022-11-14T14:49:30.620Z,71.21
2022-11-14T14:52:22.285Z,73.11
2022-11-14T14:55:20.478Z,73.69
2022-11-14T14:58:22.241Z,73.74
2022-11-14T15:01:13.618Z,74.26
2022-11-14T15:04:05.263Z,74.84
2022-11-14T15:06:52.351Z,74.45
2022-11-14T15:09:38.875Z,74.82
2022-11-14T15:12:29.009Z,75.25
2022-11-14T15:15:16.789Z,74.84
2022-11-14T15:18:06.878Z,74.70
2022-11-14T15:21:10.489Z,74.98
2022-11-14T15:24:02.052Z,77.64
2022-11-14T15:26:50.510Z,78.00
2022-11-14T15:29:47.087Z,79.92
2022-11-14T15:32:33.970Z,79.52
2022-11-14T15:35:29.348Z,80.07
2022-11-14T15:41:31.454Z,79.89
2022-11-14T15:44:30.973Z,79.14
2022-11-14T15:47:23.945Z,79.72
2022-11-14T15:50:26.334Z,78.37
2022-11-14T15:53:22.064Z,81.02
2022-11-14T15:56:12.397Z,80.47
2022-11-14T15:58:58.866Z,80.33
2022-11-14T16:01:47.499Z,80.29
2022-11-14T16:04:37.028Z,80.79
2022-11-14T16:07:23.971Z,82.87
2022-11-14T16:10:15.440Z,83.82
2022-11-14T16:13:02.114Z,83.14
2022-11-14T16:15:48.949Z,81.61
2022-11-14T16:18:35.703Z,82.27
2022-11-14T16:21:23.678Z,82.43
2022-11-14T16:24:16.861Z,81.48
2022-11-14T16:27:03.618Z,81.86
2022-11-14T16:29:50.297Z,81.82
2022-11-14T16:32:36.789Z,82.38
2022-11-14T16:35:24.852Z,81.98
2022-11-14T16:38:14.018Z,81.31
2022-11-14T16:41:01.129Z,81.31
2022-11-14T16:43:47.581Z,80.58
2022-11-14T16:46:34.191Z,81.36
2022-11-14T16:49:20.983Z,81.92
2022-11-14T16:52:08.733Z,81.70
2022-11-14T16:54:56.930Z,81.85
2022-11-14T16:57:43.765Z,81.84
2022-11-14T17:00:30.472Z,81.28
2022-11-14T17:03:18.151Z,81.53
2022-11-14T17:06:09.938Z,81.18
2022-11-14T17:08:56.874Z,81.60
2022-11-14T17:11:45.554Z,81.71
2022-11-14T17:14:32.092Z,82.18
2022-11-14T17:17:18.929Z,81.24
2022-11-14T17:20:06.463Z,82.21
2022-11-14T17:22:53.055Z,81.71
2022-11-14T17:25:39.841Z,81.25
2022-11-14T17:28:28.144Z,81.53
2022-11-14T17:31:15.927Z,82.58
2022-11-14T17:34:03.053Z,83.22
2022-11-14T17:36:49.544Z,83.73
2022-11-14T17:39:36.229Z,84.10
2022-11-14T17:42:22.986Z,84.08
2022-11-14T17:45:11.520Z,83.42
2022-11-14T17:47:58.297Z,83.67
2022-11-14T17:50:44.655Z,83.65
2022-11-14T17:53:33.563Z,84.98
2022-11-14T17:56:22.188Z,85.86
2022-11-14T17:59:09.135Z,85.70
2022-11-14T18:01:59.964Z,85.52
2022-11-14T18:04:48.007Z,85.56
2022-11-14T18:07:34.561Z,85.11
2022-11-14T18:10:21.267Z,84.79
2022-11-14T18:13:08.185Z,84.35
2022-11-14T18:15:54.789Z,84.01
2022-11-14T18:18:42.649Z,84.49
2022-11-14T18:21:32.644Z,84.21
2022-11-14T18:24:19.167Z,84.54
2022-11-14T18:27:05.671Z,83.85
2022-11-14T18:29:52.648Z,83.93
2022-11-14T18:32:39.248Z,83.35
2022-11-14T18:35:27.172Z,83.48
2022-11-14T18:38:13.561Z,84.47
2022-11-14T18:41:01.261Z,84.48
2022-11-14T18:43:48.174Z,84.33
2022-11-14T18:46:37.512Z,84.14
2022-11-14T18:49:28.277Z,83.87
2022-11-14T18:52:17.718Z,84.03
2022-11-14T18:55:05.530Z,83.57
2022-11-14T18:57:52.399Z,83.20
2022-11-14T19:00:39.322Z,83.74
2022-11-14T19:03:25.941Z,83.89
2022-11-14T19:06:13.853Z,84.23
2022-11-14T19:09:06.880Z,83.85
2022-11-14T19:12:14.870Z,83.17
2022-11-14T19:15:02.200Z,83.55
2022-11-14T19:17:49.432Z,83.22
2022-11-14T19:20:35.853Z,83.52
2022-11-14T19:23:22.407Z,83.63
2022-11-14T19:26:10.392Z,83.67
2022-11-14T19:28:57.404Z,83.98
2022-11-14T19:31:44.414Z,84.14
2022-11-14T19:34:31.112Z,84.86
2022-11-14T19:37:17.536Z,85.37
2022-11-14T19:40:04.905Z,84.93
2022-11-14T19:42:55.958Z,85.70
2022-11-14T19:45:42.672Z,85.46
2022-11-14T19:48:29.313Z,85.36
2022-11-14T19:51:18.035Z,85.24
2022-11-14T19:54:05.062Z,85.62
2022-11-14T19:56:51.422Z,85.99
2022-11-14T19:59:40.635Z,85.72
2022-11-14T20:02:28.582Z,86.49
2022-11-14T20:05:15.056Z,85.77
2022-11-14T20:08:01.746Z,86.25
2022-11-14T20:10:56.106Z,86.00
2022-11-14T20:13:44.035Z,85.54
2022-11-14T20:16:33.690Z,85.77
2022-11-14T20:19:20.717Z,86.40
2022-11-14T20:22:07.363Z,86.05
2022-11-14T20:24:54.135Z,85.70
2022-11-14T20:27:40.991Z,85.75
2022-11-14T20:30:27.790Z,86.21
2022-11-14T20:33:15.617Z,85.64
2022-11-14T20:36:05.472Z,85.97
2022-11-14T20:38:53.004Z,85.38
2022-11-14T20:41:39.719Z,85.32
2022-11-14T20:44:26.273Z,84.78
2022-11-14T20:47:13.084Z,84.91
2022-11-14T20:50:01.262Z,84.56
2022-11-14T20:52:48.530Z,85.25
2022-11-14T20:55:35.466Z,85.46
2022-11-14T20:58:22.336Z,85.79
2022-11-14T21:01:09.151Z,86.81
2022-11-14T21:03:55.979Z,86.79
2022-11-14T21:06:44.247Z,87.11
2022-11-14T21:09:31.248Z,86.94
2022-11-14T21:12:18.130Z,86.62
2022-11-14T21:15:05.615Z,86.05
2022-11-14T21:17:52.926Z,86.81
2022-11-14T21:20:39.769Z,87.40
2022-11-14T21:23:28.115Z,87.50
2022-11-14T21:26:16.963Z,87.35
2022-11-14T21:29:06.024Z,87.34
2022-11-14T21:31:52.382Z,86.81
2022-11-14T21:34:39.141Z,86.02
2022-11-14T21:37:25.795Z,86.56
2022-11-14T21:40:14.258Z,86.80
2022-11-14T21:43:00.770Z,86.12
2022-11-14T21:45:55.247Z,86.04
2022-11-14T21:48:43.035Z,85.86
2022-11-14T21:51:30.047Z,85.97
2022-11-14T21:54:16.665Z,85.71
2022-11-14T21:57:09.736Z,85.37
2022-11-14T21:59:56.605Z,86.55
2022-11-14T22:03:00.770Z,86.32
2022-11-14T22:05:47.288Z,87.47
2022-11-14T22:08:34.058Z,87.06
2022-11-14T22:11:20.960Z,86.58
2022-11-14T22:14:09.343Z,86.34
2022-11-14T22:16:56.155Z,86.74
2022-11-14T22:19:42.793Z,85.72
2022-11-14T22:22:29.590Z,85.79
2022-11-14T22:25:16.196Z,85.94
2022-11-14T22:28:02.675Z,86.02
2022-11-14T22:30:50.696Z,85.70
2022-11-14T22:33:42.719Z,86.32
2022-11-14T22:36:31.907Z,86.26
2022-11-14T22:39:18.355Z,85.91
2022-11-14T22:42:05.323Z,85.27
2022-11-14T22:44:51.944Z,84.41
2022-11-14T22:47:39.960Z,84.58
2022-11-14T22:50:26.540Z,84.85
2022-11-14T22:53:13.063Z,85.14
2022-11-14T22:56:00.309Z,84.89
2022-11-14T22:58:47.377Z,85.39
2022-11-14T23:01:34.159Z,84.51
2022-11-14T23:04:22.020Z,85.25
2022-11-14T23:07:08.616Z,85.56
2022-11-14T23:09:55.257Z,86.37
2022-11-14T23:12:41.942Z,86.15
2022-11-14T23:15:30.052Z,86.59
2022-11-14T23:18:17.071Z,85.90
2022-11-14T23:21:12.596Z,86.19
2022-11-14T23:24:00.804Z,87.24
2022-11-14T23:26:47.681Z,86.66
2022-11-14T23:29:34.482Z,86.17
2022-11-14T23:32:21.383Z,86.51
2022-11-14T23:35:08.864Z,86.44
2022-11-14T23:37:57.351Z,86.63
2022-11-14T23:40:44.033Z,86.75
2022-11-14T23:43:31.415Z,86.39
2022-11-14T23:46:18.571Z,86.32
2022-11-14T23:49:05.032Z,87.04
2022-11-14T23:51:51.884Z,86.40
2022-11-14T23:54:40.194Z,86.15
2022-11-14T23:57:26.856Z,85.88
